createdAt,value
2019-03-12T00:00:29.529Z,3.05
2019-03-12T00:02:58.000Z,3.11
2019-03-12T00:05:26.517Z,3.07
2019-03-12T00:07:55.004Z,3.03
2019-03-12T00:10:23.505Z,3.07
2019-03-12T00:12:51.990Z,3.05
2019-03-12T00:15:20.495Z,3.02
2019-03-12T00:17:48.982Z,3.06
2019-03-12T00:20:17.551Z,3.04
2019-03-12T00:22:46.033Z,2.99
2019-03-12T00:25:15.627Z,3.01
2019-03-12T00:27:44.106Z,3.07
2019-03-12T00:30:12.862Z,3.07
2019-03-12T00:32:41.344Z,3.00
2019-03-12T00:35:10.125Z,3.00
2019-03-12T00:37:38.617Z,3.02
2019-03-12T00:40:08.849Z,3.00
2019-03-12T00:42:37.366Z,3.05
2019-03-12T00:45:08.703Z,3.02
2019-03-12T00:47:37.183Z,2.98
2019-03-12T00:50:08.101Z,3.07
2019-03-12T00:52:36.588Z,3.03
2019-03-12T00:55:06.702Z,3.01
2019-03-12T00:57:35.218Z,3.00
2019-03-12T01:00:06.274Z,3.08
2019-03-12T01:02:34.855Z,3.06
2019-03-12T01:05:03.416Z,3.12
2019-03-12T01:07:31.919Z,3.09
2019-03-12T01:10:00.403Z,3.15
2019-03-12T01:12:28.926Z,3.15
2019-03-12T01:14:57.406Z,3.21
2019-03-12T01:17:25.904Z,3.21
2019-03-12T01:19:54.420Z,3.19
2019-03-12T01:22:22.942Z,3.25
2019-03-12T01:24:51.413Z,3.27
2019-03-12T01:27:19.918Z,3.28
2019-03-12T01:29:48.402Z,3.28
2019-03-12T01:32:16.887Z,3.27
2019-03-12T01:34:45.361Z,3.30
2019-03-12T01:37:13.858Z,3.22
2019-03-12T01:39:42.337Z,3.26
2019-03-12T01:42:10.855Z,3.28
2019-03-12T01:44:39.404Z,3.28
2019-03-12T01:47:08.003Z,3.24
2019-03-12T01:49:36.472Z,3.24
2019-03-12T01:52:05.021Z,3.27
2019-03-12T01:54:33.489Z,3.34
2019-03-12T01:57:02.003Z,3.29
2019-03-12T01:59:30.483Z,3.29
2019-03-12T02:01:59.015Z,3.36
2019-03-12T02:04:27.499Z,3.39
2019-03-12T02:06:57.499Z,3.37
2019-03-12T02:09:26.341Z,3.41
2019-03-12T02:11:54.860Z,3.42
2019-03-12T02:14:25.304Z,3.42
2019-03-12T02:16:53.873Z,3.44
2019-03-12T02:19:22.406Z,3.48
2019-03-12T02:21:50.986Z,3.47
2019-03-12T02:24:19.508Z,3.44
2019-03-12T02:26:48.070Z,3.44
2019-03-12T02:29:16.517Z,3.46
2019-03-12T02:31:45.069Z,3.49
2019-03-12T02:34:13.552Z,3.50
2019-03-12T02:36:42.095Z,3.43
2019-03-12T02:39:11.449Z,3.50
2019-03-12T02:41:40.008Z,3.51
2019-03-12T02:44:08.607Z,3.55
2019-03-12T02:46:37.137Z,3.53
2019-03-12T02:49:09.188Z,3.52
2019-03-12T02:51:35.792Z,3.55
2019-03-12T02:54:05.808Z,3.50
2019-03-12T02:56:34.331Z,3.59
2019-03-12T02:59:02.821Z,3.59
2019-03-12T03:01:31.338Z,3.51
2019-03-12T03:03:59.868Z,3.58
2019-03-12T03:06:29.971Z,3.63
2019-03-12T03:08:58.495Z,3.55
2019-03-12T03:11:27.014Z,3.55
2019-03-12T03:13:55.503Z,3.57
2019-03-12T03:16:24.576Z,3.61
2019-03-12T03:18:53.371Z,3.60
2019-03-12T03:21:21.851Z,3.63
2019-03-12T03:23:50.350Z,3.62
2019-03-12T03:26:18.942Z,3.63
2019-03-12T03:28:47.403Z,3.64
2019-03-12T03:31:15.896Z,3.65
2019-03-12T03:33:44.421Z,3.69
2019-03-12T03:36:12.938Z,3.67
2019-03-12T03:38:41.450Z,3.66
2019-03-12T03:41:09.962Z,3.65
2019-03-12T03:43:38.476Z,3.66
2019-03-12T03:46:06.998Z,3.69
2019-03-12T03:48:35.488Z,3.69
2019-03-12T03:51:04.038Z,3.70
2019-03-12T03:53:32.545Z,3.70
2019-03-12T03:56:01.021Z,3.73
2019-03-12T03:58:29.502Z,3.79
2019-03-12T04:00:57.982Z,3.79
2019-03-12T04:03:26.517Z,3.80
2019-03-12T04:05:55.050Z,3.77
2019-03-12T04:08:23.564Z,3.70
2019-03-12T04:10:52.116Z,3.75
2019-03-12T04:13:20.592Z,3.82
2019-03-12T04:15:49.246Z,3.77
2019-03-12T04:18:17.759Z,3.82
2019-03-12T04:20:46.299Z,3.82
2019-03-12T04:23:16.244Z,3.83
2019-03-12T04:25:44.948Z,3.81
2019-03-12T04:28:13.459Z,3.82
2019-03-12T04:30:41.919Z,3.87
2019-03-12T04:33:33.090Z,3.87
2019-03-12T04:36:01.604Z,3.86
2019-03-12T04:38:30.094Z,3.91
2019-03-12T04:40:58.663Z,3.87
2019-03-12T04:43:27.158Z,3.83
2019-03-12T04:45:55.643Z,3.87
2019-03-12T04:48:24.178Z,3.83
2019-03-12T04:50:52.600Z,3.85
2019-03-12T04:53:21.101Z,3.77
2019-03-12T04:55:49.721Z,3.81
2019-03-12T04:58:18.238Z,3.80
2019-03-12T05:00:46.773Z,3.79
2019-03-12T05:03:15.250Z,3.74
2019-03-12T05:05:43.805Z,3.77
2019-03-12T05:08:12.272Z,3.82
2019-03-12T05:10:40.795Z,3.75
2019-03-12T05:13:09.250Z,3.77
2019-03-12T05:15:37.760Z,3.76
2019-03-12T05:18:06.206Z,3.73
2019-03-12T05:20:34.687Z,3.70
2019-03-12T05:23:03.164Z,3.71
2019-03-12T05:25:31.700Z,3.68
2019-03-12T05:28:00.198Z,3.71
2019-03-12T05:30:28.709Z,3.62
2019-03-12T05:32:57.266Z,3.67
2019-03-12T05:35:25.811Z,3.68
2019-03-12T05:37:54.256Z,3.73
2019-03-12T05:40:22.736Z,3.71
2019-03-12T05:42:51.215Z,3.75
2019-03-12T05:45:19.700Z,3.70
2019-03-12T05:47:48.279Z,3.70
2019-03-12T05:50:18.135Z,3.70
2019-03-12T05:52:48.998Z,3.69
2019-03-12T05:55:17.080Z,3.71
2019-03-12T05:57:45.560Z,3.67
2019-03-12T06:00:19.844Z,3.71
2019-03-12T06:02:48.380Z,3.66
2019-03-12T06:05:16.999Z,3.74
2019-03-12T06:07:45.489Z,3.75
2019-03-12T06:10:15.613Z,3.80
2019-03-12T06:12:44.356Z,3.80
2019-03-12T06:15:14.486Z,3.78
2019-03-12T06:17:43.008Z,3.88
2019-03-12T06:20:13.013Z,3.84
2019-03-12T06:22:41.560Z,3.86
2019-03-12T06:25:10.261Z,3.88
2019-03-12T06:27:38.794Z,3.88
2019-03-12T06:30:13.105Z,3.87
2019-03-12T06:32:48.987Z,3.88
2019-03-12T06:35:24.901Z,3.88
2019-03-12T06:37:55.065Z,3.96
2019-03-12T06:40:27.916Z,3.91
2019-03-12T06:43:14.319Z,4.05
2019-03-12T06:45:53.784Z,4.10
2019-03-12T06:48:23.978Z,4.17
2019-03-12T06:51:00.139Z,4.27
2019-03-12T06:53:46.692Z,4.27
2019-03-12T06:56:19.572Z,4.28
2019-03-12T06:58:58.904Z,4.32
2019-03-12T07:01:29.090Z,4.28
2019-03-12T07:04:08.138Z,4.21
2019-03-12T07:06:54.494Z,4.23
2019-03-12T07:09:41.081Z,4.25
2019-03-12T07:12:20.219Z,4.25
2019-03-12T07:14:59.110Z,4.31
2019-03-12T07:17:31.930Z,4.31
2019-03-12T07:20:17.968Z,4.31
2019-03-12T07:22:48.096Z,4.31
2019-03-12T07:25:20.923Z,4.41
2019-03-12T07:27:51.096Z,4.50
2019-03-12T07:30:21.377Z,4.45
2019-03-12T07:32:56.282Z,4.52
2019-03-12T07:35:26.001Z,4.57
2019-03-12T07:37:59.253Z,4.62
2019-03-12T07:40:45.213Z,4.70
2019-03-12T07:43:15.331Z,4.87
2019-03-12T07:45:45.510Z,4.85
2019-03-12T07:48:21.857Z,5.01
2019-03-12T07:51:00.874Z,5.14
2019-03-12T07:53:34.116Z,5.19
2019-03-12T07:56:04.266Z,5.16
2019-03-12T07:58:46.546Z,5.12
2019-03-12T08:01:16.657Z,5.15
2019-03-12T08:03:46.796Z,5.14
2019-03-12T08:06:29.189Z,5.07
2019-03-12T08:08:59.336Z,5.16
2019-03-12T08:11:29.453Z,5.00
2019-03-12T08:14:05.330Z,5.17
2019-03-12T08:16:35.435Z,5.10
2019-03-12T08:19:05.569Z,5.16
2019-03-12T08:21:44.734Z,5.29
2019-03-12T08:24:31.586Z,5.22
2019-03-12T08:27:14.107Z,5.18
2019-03-12T08:29:44.266Z,5.26
2019-03-12T08:32:17.374Z,5.31
2019-03-12T08:35:03.493Z,5.37
2019-03-12T08:37:51.838Z,5.55
2019-03-12T08:40:37.093Z,5.60
2019-03-12T08:43:07.239Z,5.69
2019-03-12T08:45:37.382Z,5.77
2019-03-12T08:48:16.688Z,5.80
2019-03-12T08:50:46.805Z,5.83
2019-03-12T08:53:19.877Z,5.83
2019-03-12T08:56:06.216Z,6.00
2019-03-12T08:58:36.348Z,6.01
2019-03-12T09:01:23.049Z,6.00
2019-03-12T09:03:58.979Z,6.06
2019-03-12T09:06:45.271Z,6.12
2019-03-12T09:09:18.160Z,6.19
2019-03-12T09:11:50.977Z,6.39
2019-03-12T09:14:21.140Z,6.47
2019-03-12T09:17:02.957Z,6.55
2019-03-12T09:19:33.107Z,6.50
2019-03-12T09:22:06.354Z,6.72
2019-03-12T09:24:36.507Z,6.68
2019-03-12T09:27:06.767Z,6.75
2019-03-12T09:29:36.892Z,7.25
2019-03-12T09:32:07.010Z,7.67
2019-03-12T09:34:39.877Z,7.94
2019-03-12T09:37:10.000Z,8.10
2019-03-12T09:39:42.846Z,8.09
2019-03-12T09:42:27.909Z,8.46
2019-03-12T09:44:58.039Z,8.85
2019-03-12T09:47:44.327Z,8.88
2019-03-12T09:50:26.535Z,9.11
2019-03-12T09:53:02.088Z,9.04
2019-03-12T09:55:48.549Z,9.18
2019-03-12T09:58:30.512Z,8.95
2019-03-12T10:01:00.666Z,9.12
2019-03-12T10:03:42.532Z,9.31
2019-03-12T10:06:15.379Z,9.78
2019-03-12T10:08:48.576Z,9.96
2019-03-12T10:11:34.088Z,10.55
2019-03-12T10:14:20.623Z,10.87
2019-03-12T10:16:53.438Z,10.56
2019-03-12T10:19:39.773Z,10.66
2019-03-12T10:22:16.050Z,10.46
2019-03-12T10:24:52.383Z,10.58
2019-03-12T10:27:22.520Z,10.29
2019-03-12T10:29:52.746Z,11.52
2019-03-12T10:32:25.591Z,11.41
2019-03-12T10:34:58.414Z,11.92
2019-03-12T10:37:31.233Z,11.24
2019-03-12T10:40:14.868Z,11.22
2019-03-12T10:42:48.041Z,10.83
2019-03-12T10:45:23.709Z,10.37
2019-03-12T10:47:53.830Z,10.47
2019-03-12T10:50:22.671Z,10.91
2019-03-12T10:52:51.142Z,10.87
2019-03-12T10:55:19.647Z,11.11
2019-03-12T10:57:48.166Z,10.72
2019-03-12T11:00:18.491Z,10.73
2019-03-12T11:02:47.207Z,10.53
2019-03-12T11:05:15.942Z,11.02
2019-03-12T11:07:44.441Z,11.09
2019-03-12T11:10:17.853Z,10.96
2019-03-12T11:12:46.297Z,10.41
2019-03-12T11:15:16.007Z,10.36
2019-03-12T11:17:49.920Z,10.23
2019-03-12T11:20:17.116Z,10.34
2019-03-12T11:22:45.628Z,10.09
2019-03-12T11:25:25.912Z,10.16
2019-03-12T11:27:44.330Z,10.00
2019-03-12T11:30:15.779Z,9.98
2019-03-12T11:32:44.367Z,9.97
2019-03-12T11:35:13.052Z,9.94
2019-03-12T11:37:41.740Z,10.15
2019-03-12T11:40:21.962Z,9.87
2019-03-12T11:42:50.555Z,9.95
2019-03-12T11:45:20.661Z,9.67
2019-03-12T11:47:49.445Z,9.71
2019-03-12T11:50:21.005Z,9.80
2019-03-12T11:52:55.479Z,9.72
2019-03-12T11:55:19.926Z,9.89
2019-03-12T11:57:48.723Z,9.98
2019-03-12T12:00:24.419Z,9.98
2019-03-12T12:02:59.795Z,9.97
2019-03-12T12:05:23.321Z,9.98
2019-03-12T12:07:51.862Z,9.77
2019-03-12T12:10:20.447Z,9.92
2019-03-12T12:12:48.998Z,10.00
2019-03-12T12:15:17.479Z,10.04
2019-03-12T12:17:49.087Z,10.05
2019-03-12T12:20:28.749Z,10.06
2019-03-12T12:22:47.304Z,10.10
2019-03-12T12:25:19.852Z,10.07
2019-03-12T12:27:49.857Z,10.01
2019-03-12T12:30:22.528Z,9.99
2019-03-12T12:32:51.082Z,10.05
2019-03-12T12:35:19.617Z,9.96
2019-03-12T12:37:48.119Z,10.09
2019-03-12T12:40:18.045Z,10.09
2019-03-12T12:42:46.554Z,10.11
2019-03-12T12:45:17.456Z,10.04
2019-03-12T12:47:45.933Z,10.00
2019-03-12T12:50:15.043Z,9.95
2019-03-12T12:52:44.535Z,9.87
2019-03-12T12:55:14.712Z,9.87
2019-03-12T12:57:43.279Z,9.92
2019-03-12T13:00:20.566Z,9.78
2019-03-12T13:02:49.322Z,9.83
2019-03-12T13:05:18.394Z,9.89
2019-03-12T13:07:46.900Z,9.88
2019-03-12T13:10:21.066Z,9.80
2019-03-12T13:12:49.557Z,9.86
2019-03-12T13:15:18.106Z,9.80
2019-03-12T13:17:46.662Z,9.82
2019-03-12T13:20:15.768Z,9.83
2019-03-12T13:22:44.267Z,9.96
2019-03-12T13:25:14.951Z,10.03
2019-03-12T13:27:43.612Z,10.00
2019-03-12T13:30:19.976Z,9.92
2019-03-12T13:32:48.485Z,9.89
2019-03-12T13:35:18.316Z,9.97
2019-03-12T13:37:47.633Z,9.87
2019-03-12T13:40:18.594Z,9.95
2019-03-12T13:42:47.145Z,9.94
2019-03-12T13:45:17.975Z,9.87
2019-03-12T13:47:46.562Z,9.84
2019-03-12T13:50:15.348Z,9.92
2019-03-12T13:52:43.899Z,9.89
2019-03-12T13:55:16.892Z,9.88
2019-03-12T13:57:45.607Z,9.88
2019-03-12T14:00:16.561Z,9.89
2019-03-12T14:02:45.556Z,9.99
2019-03-12T14:05:14.395Z,9.86
2019-03-12T14:07:43.009Z,9.95
2019-03-12T14:10:14.706Z,9.87
2019-03-12T14:12:43.321Z,9.78
2019-03-12T14:15:15.177Z,9.80
2019-03-12T14:17:43.698Z,9.86
2019-03-12T14:20:50.164Z,9.82
2019-03-12T14:23:28.344Z,9.84
2019-03-12T14:25:57.074Z,9.88
2019-03-12T14:28:25.710Z,9.94
2019-03-12T14:30:54.190Z,9.84
2019-03-12T14:33:22.829Z,9.80
2019-03-12T14:35:52.375Z,9.76
2019-03-12T14:38:21.108Z,9.74
2019-03-12T14:40:49.808Z,9.67
2019-03-12T14:43:18.421Z,9.69
2019-03-12T14:45:51.551Z,9.67
2019-03-12T14:48:39.330Z,9.68
2019-03-12T14:51:39.631Z,9.58
2019-03-12T14:54:11.157Z,9.53
2019-03-12T14:56:39.805Z,9.57
2019-03-12T14:59:08.374Z,9.45
2019-03-12T15:01:36.858Z,9.47
2019-03-12T15:04:05.523Z,9.50
2019-03-12T15:06:34.491Z,9.48
2019-03-12T15:09:04.864Z,9.46
2019-03-12T15:11:33.366Z,9.46
2019-03-12T15:14:01.879Z,9.43
2019-03-12T15:16:30.387Z,9.42
2019-03-12T15:18:58.887Z,9.36
2019-03-12T15:21:27.357Z,9.40
2019-03-12T15:23:55.850Z,9.44
2019-03-12T15:26:24.385Z,9.43
2019-03-12T15:28:52.997Z,9.42
2019-03-12T15:31:21.483Z,9.32
2019-03-12T15:33:49.983Z,9.35
2019-03-12T15:36:18.455Z,9.30
2019-03-12T15:38:47.039Z,9.27
2019-03-12T15:41:15.513Z,9.37
2019-03-12T15:43:44.111Z,9.34
2019-03-12T15:46:12.638Z,9.26
2019-03-12T15:48:41.142Z,9.22
2019-03-12T15:51:09.623Z,9.24
2019-03-12T15:53:38.128Z,9.21
2019-03-12T15:56:06.602Z,9.19
2019-03-12T15:58:35.096Z,9.05
2019-03-12T16:01:03.637Z,9.07
2019-03-12T16:03:32.139Z,9.04
2019-03-12T16:06:00.683Z,9.05
2019-03-12T16:08:29.180Z,9.04
2019-03-12T16:10:58.613Z,9.02
2019-03-12T16:13:27.322Z,8.96
2019-03-12T16:15:55.834Z,9.01
2019-03-12T16:18:24.359Z,8.96
2019-03-12T16:20:52.772Z,8.96
2019-03-12T16:23:21.338Z,8.88
2019-03-12T16:25:49.824Z,8.86
2019-03-12T16:28:18.322Z,8.89
2019-03-12T16:30:46.799Z,8.80
2019-03-12T16:33:15.307Z,8.75
2019-03-12T16:35:43.764Z,8.68
2019-03-12T16:38:12.279Z,8.64
2019-03-12T16:40:40.755Z,8.62
2019-03-12T16:43:09.207Z,8.59
2019-03-12T16:45:37.691Z,8.58
2019-03-12T16:48:06.180Z,8.50
2019-03-12T16:50:34.684Z,8.50
2019-03-12T16:53:03.169Z,8.46
2019-03-12T16:55:31.856Z,8.45
2019-03-12T16:58:00.394Z,8.38
2019-03-12T17:00:29.039Z,8.34
2019-03-12T17:02:57.531Z,8.31
2019-03-12T17:05:26.605Z,8.27
2019-03-12T17:07:55.239Z,8.27
2019-03-12T17:10:23.779Z,8.27
2019-03-12T17:12:52.305Z,8.27
2019-03-12T17:15:31.179Z,8.22
2019-03-12T17:17:59.636Z,8.19
2019-03-12T17:20:28.184Z,8.18
2019-03-12T17:22:56.700Z,8.14
2019-03-12T17:25:25.200Z,8.07
2019-03-12T17:27:53.656Z,8.09
2019-03-12T17:30:23.368Z,8.06
2019-03-12T17:32:52.047Z,8.03
2019-03-12T17:35:32.622Z,8.02
2019-03-12T17:38:01.106Z,8.04
2019-03-12T17:40:29.680Z,7.99
2019-03-12T17:42:58.264Z,8.00
2019-03-12T17:45:26.772Z,8.02
2019-03-12T17:47:55.275Z,7.99
2019-03-12T17:50:23.821Z,7.95
2019-03-12T17:52:53.298Z,7.93
2019-03-12T17:55:21.772Z,7.94
2019-03-12T17:57:50.885Z,7.92
2019-03-12T18:00:28.118Z,7.90
2019-03-12T18:02:55.668Z,7.89
2019-03-12T18:05:24.171Z,7.83
2019-03-12T18:07:52.639Z,7.83
2019-03-12T18:10:21.149Z,7.78
2019-03-12T18:12:49.624Z,7.76
2019-03-12T18:15:21.625Z,7.77
2019-03-12T18:17:50.077Z,7.74
2019-03-12T18:20:22.697Z,7.71
2019-03-12T18:22:51.236Z,7.67
2019-03-12T18:25:30.499Z,7.69
2019-03-12T18:27:58.971Z,7.69
2019-03-12T18:30:27.554Z,7.67
2019-03-12T18:32:56.047Z,7.64
2019-03-12T18:35:24.604Z,7.62
2019-03-12T18:37:53.078Z,7.61
2019-03-12T18:40:26.223Z,7.60
2019-03-12T18:42:54.894Z,7.60
2019-03-12T18:45:31.977Z,7.58
2019-03-12T18:48:00.457Z,7.57
2019-03-12T18:50:28.948Z,7.56
2019-03-12T18:52:57.423Z,7.57
2019-03-12T18:55:37.999Z,7.55
2019-03-12T18:58:06.887Z,7.57
2019-03-12T19:00:36.195Z,7.57
2019-03-12T19:03:04.921Z,7.56
2019-03-12T19:05:33.412Z,7.53
2019-03-12T19:08:01.936Z,7.56
2019-03-12T19:10:30.522Z,7.56
2019-03-12T19:12:58.982Z,7.57
2019-03-12T19:15:27.523Z,7.56
2019-03-12T19:17:55.983Z,7.57
2019-03-12T19:20:24.449Z,7.56
2019-03-12T19:22:52.922Z,7.58
2019-03-12T19:25:29.377Z,7.56
2019-03-12T19:28:00.280Z,7.57
2019-03-12T19:30:28.094Z,7.55
2019-03-12T19:33:01.501Z,7.54
2019-03-12T19:35:31.522Z,7.54
2019-03-12T19:38:01.227Z,7.54
2019-03-12T19:40:38.505Z,7.54
2019-03-12T19:43:06.998Z,7.53
2019-03-12T19:45:35.531Z,7.52
2019-03-12T19:48:04.052Z,7.52
2019-03-12T19:50:32.647Z,7.50
2019-03-12T19:53:01.218Z,7.50
2019-03-12T19:55:44.660Z,7.46
2019-03-12T19:58:13.353Z,7.46
2019-03-12T20:00:41.987Z,7.45
2019-03-12T20:03:14.756Z,7.43
2019-03-12T20:05:40.738Z,7.39
2019-03-12T20:08:09.209Z,7.36
2019-03-12T20:11:03.477Z,7.35
2019-03-12T20:13:46.363Z,7.34
2019-03-12T20:16:40.158Z,7.31
2019-03-12T20:19:45.032Z,7.27
2019-03-12T20:22:25.408Z,7.27
2019-03-12T20:25:30.428Z,7.29
2019-03-12T20:28:33.930Z,7.23
2019-03-12T20:31:08.552Z,7.21
2019-03-12T20:34:02.965Z,7.18
2019-03-12T20:36:53.891Z,7.20
2019-03-12T20:39:48.202Z,7.17
2019-03-12T20:42:43.998Z,7.16
2019-03-12T20:45:27.536Z,7.16
2019-03-12T20:48:28.136Z,7.13
2019-03-12T20:51:26.038Z,7.12
2019-03-12T20:54:14.350Z,7.08
2019-03-12T20:57:01.305Z,7.05
2019-03-12T21:00:08.785Z,7.08
2019-03-12T21:03:03.343Z,7.04
2019-03-12T21:05:37.752Z,7.02
2019-03-12T21:08:42.709Z,7.02
2019-03-12T21:11:23.493Z,7.01
2019-03-12T21:14:15.583Z,7.02
2019-03-12T21:16:49.683Z,7.01
2019-03-12T21:19:54.385Z,6.99
2019-03-12T21:22:46.874Z,6.99
2019-03-12T21:25:21.430Z,6.98
2019-03-12T21:27:55.609Z,6.98
2019-03-12T21:30:26.198Z,6.99
2019-03-12T21:32:54.749Z,6.98
2019-03-12T21:35:23.260Z,6.99
2019-03-12T21:37:51.885Z,7.00
2019-03-12T21:40:20.365Z,6.99
2019-03-12T21:42:48.950Z,7.00
2019-03-12T21:45:17.486Z,7.00
2019-03-12T21:47:45.994Z,6.99
2019-03-12T21:50:14.576Z,7.00
2019-03-12T21:52:43.113Z,7.03
2019-03-12T21:55:13.895Z,7.01
2019-03-12T21:57:42.402Z,7.03
2019-03-12T22:00:19.358Z,7.04
2019-03-12T22:02:47.883Z,7.04
2019-03-12T22:05:16.326Z,7.06
2019-03-12T22:07:44.874Z,7.06
2019-03-12T22:10:13.529Z,7.06
2019-03-12T22:12:42.137Z,7.06
2019-03-12T22:15:12.881Z,7.07
2019-03-12T22:17:41.543Z,7.09
2019-03-12T22:20:12.302Z,7.10
2019-03-12T22:22:42.574Z,7.08
2019-03-12T22:25:13.841Z,7.11
2019-03-12T22:27:42.545Z,7.11
2019-03-12T22:30:23.226Z,7.13
2019-03-12T22:32:51.708Z,7.12
2019-03-12T22:35:20.187Z,7.13
2019-03-12T22:37:48.756Z,7.14
2019-03-12T22:40:17.281Z,7.17
2019-03-12T22:42:45.800Z,7.18
2019-03-12T22:45:14.556Z,7.20
2019-03-12T22:47:43.024Z,7.23
2019-03-12T22:50:17.615Z,7.19
2019-03-12T22:52:46.099Z,7.15
2019-03-12T22:55:15.047Z,7.21
2019-03-12T22:57:43.487Z,7.22
2019-03-12T23:00:14.117Z,7.26
2019-03-12T23:02:42.802Z,7.25
2019-03-12T23:05:12.001Z,7.25
2019-03-12T23:07:40.486Z,7.24
2019-03-12T23:10:12.953Z,7.26
2019-03-12T23:12:41.436Z,7.29
2019-03-12T23:15:19.782Z,7.44
2019-03-12T23:17:48.260Z,7.52
2019-03-12T23:20:19.594Z,7.59
2019-03-12T23:22:48.150Z,7.65
2019-03-12T23:25:16.658Z,7.72
2019-03-12T23:27:45.126Z,7.70
2019-03-12T23:30:18.242Z,7.71
2019-03-12T23:32:46.715Z,7.74
2019-03-12T23:35:15.551Z,7.72
2019-03-12T23:37:44.088Z,7.74
2019-03-12T23:40:17.787Z,7.74
2019-03-12T23:42:46.363Z,7.76
2019-03-12T23:45:16.496Z,7.76
2019-03-12T23:47:45.804Z,7.76
2019-03-12T23:50:16.612Z,7.80
2019-03-12T23:52:45.731Z,7.86
2019-03-12T23:55:19.217Z,7.89
2019-03-12T23:57:47.865Z,7.90
